createdAt,value
2023-02-27T00:00:56.433Z,-2.06
2023-02-27T00:01:55.144Z,-2.10
2023-02-27T00:02:54.609Z,-2.16
2023-02-27T00:03:54.603Z,-2.18
2023-02-27T00:04:54.887Z,-2.18
2023-02-27T00:05:54.812Z,-2.18
2023-02-27T00:06:57.251Z,-2.23
2023-02-27T00:07:57.317Z,-2.23
2023-02-27T00:08:54.591Z,-2.24
2023-02-27T00:09:54.814Z,-2.27
2023-02-27T00:10:54.791Z,-2.30
2023-02-27T00:11:54.501Z,-2.24
2023-02-27T00:12:54.740Z,-2.23
2023-02-27T00:13:54.769Z,-2.21
2023-02-27T00:14:54.798Z,-2.23
2023-02-27T00:15:54.832Z,-2.26
2023-02-27T00:16:54.722Z,-2.30
2023-02-27T00:17:54.776Z,-2.30
2023-02-27T00:18:54.701Z,-2.27
2023-02-27T00:19:57.137Z,-2.27
2023-02-27T00:20:54.640Z,-2.29
2023-02-27T00:21:54.340Z,-2.30
2023-02-27T00:22:54.695Z,-2.26
2023-02-27T00:23:54.661Z,-2.29
2023-02-27T00:24:54.329Z,-2.27
2023-02-27T00:25:54.308Z,-2.26
2023-02-27T00:26:54.642Z,-2.29
2023-02-27T00:27:54.619Z,-2.29
2023-02-27T00:28:54.607Z,-2.21
2023-02-27T00:29:54.587Z,-2.20
2023-02-27T00:30:54.625Z,-2.20
2023-02-27T00:31:54.620Z,-2.18
2023-02-27T00:32:56.956Z,-2.18
2023-02-27T00:34:01.572Z,-2.18
2023-02-27T00:35:03.012Z,-2.24
2023-02-27T00:36:02.075Z,-2.23
2023-02-27T00:37:02.320Z,-2.26
2023-02-27T00:38:01.527Z,-2.29
2023-02-27T00:39:02.016Z,-2.30
2023-02-27T00:39:54.491Z,-2.34
2023-02-27T00:40:54.457Z,-2.37
2023-02-27T00:41:54.486Z,-2.39
2023-02-27T00:42:54.448Z,-2.37
2023-02-27T00:43:55.926Z,-2.32
2023-02-27T00:44:56.884Z,-2.29
2023-02-27T00:45:55.931Z,-2.32
2023-02-27T00:46:54.445Z,-2.39
2023-02-27T00:47:54.412Z,-2.40
2023-02-27T00:48:54.383Z,-2.39
2023-02-27T00:49:54.347Z,-2.42
2023-02-27T00:50:54.335Z,-2.45
2023-02-27T00:51:54.342Z,-2.45
2023-02-27T00:52:54.366Z,-2.40
2023-02-27T00:53:54.328Z,-2.40
2023-02-27T00:54:53.984Z,-2.39
2023-02-27T00:55:53.989Z,-2.42
2023-02-27T00:56:55.765Z,-2.43
2023-02-27T00:57:54.344Z,-2.45
2023-02-27T00:58:53.955Z,-2.45
2023-02-27T00:59:54.274Z,-2.46
2023-02-27T01:00:53.964Z,-2.45
2023-02-27T01:01:56.754Z,-2.43
2023-02-27T01:02:54.302Z,-2.45
2023-02-27T01:03:56.675Z,-2.43
2023-02-27T01:04:54.232Z,-2.40
2023-02-27T01:05:54.263Z,-2.43
2023-02-27T01:06:54.178Z,-2.45
2023-02-27T01:07:53.856Z,-2.49
2023-02-27T01:08:54.218Z,-2.49
2023-02-27T01:09:54.231Z,-2.48
2023-02-27T01:10:54.116Z,-2.49
2023-02-27T01:11:54.119Z,-2.49
2023-02-27T01:12:53.800Z,-2.48
2023-02-27T01:13:54.109Z,-2.45
2023-02-27T01:14:54.075Z,-2.43
2023-02-27T01:15:54.121Z,-2.39
2023-02-27T01:16:54.035Z,-2.42
2023-02-27T01:17:55.572Z,-2.42
2023-02-27T01:18:53.742Z,-2.43
2023-02-27T01:19:54.020Z,-2.40
2023-02-27T01:20:56.478Z,-2.40
2023-02-27T01:21:53.725Z,-2.43
2023-02-27T01:22:53.681Z,-2.46
2023-02-27T01:23:53.709Z,-2.42
2023-02-27T01:24:53.991Z,-2.42
2023-02-27T01:25:53.993Z,-2.42
2023-02-27T01:26:53.945Z,-2.46
2023-02-27T01:27:53.677Z,-2.48
2023-02-27T01:28:56.410Z,-2.48
2023-02-27T01:29:53.932Z,-2.50
2023-02-27T01:30:53.982Z,-2.48
2023-02-27T01:31:54.187Z,-2.49
2023-02-27T01:32:53.580Z,-2.50
2023-02-27T01:33:53.930Z,-2.49
2023-02-27T01:34:56.363Z,-2.50
2023-02-27T01:35:53.910Z,-2.48
2023-02-27T01:36:53.891Z,-2.50
2023-02-27T01:37:53.840Z,-2.55
2023-02-27T01:38:53.873Z,-2.53
2023-02-27T01:39:53.820Z,-2.55
2023-02-27T01:40:53.823Z,-2.56
2023-02-27T01:41:53.795Z,-2.60
2023-02-27T01:42:53.468Z,-2.61
2023-02-27T01:43:53.485Z,-2.56
2023-02-27T01:44:53.449Z,-2.52
2023-02-27T01:45:55.295Z,-2.48
2023-02-27T01:46:53.418Z,-2.50
2023-02-27T01:47:53.719Z,-2.48
2023-02-27T01:48:53.759Z,-2.48
2023-02-27T01:49:56.202Z,-2.52
2023-02-27T01:50:53.703Z,-2.58
2023-02-27T01:51:53.359Z,-2.61
2023-02-27T01:52:53.359Z,-2.61
2023-02-27T01:53:56.172Z,-2.61
2023-02-27T01:54:53.338Z,-2.61
2023-02-27T01:55:53.319Z,-2.63
2023-02-27T01:56:53.580Z,-2.68
2023-02-27T01:57:53.305Z,-2.68
2023-02-27T01:58:53.549Z,-2.68
2023-02-27T01:59:53.279Z,-2.68
2023-02-27T02:00:53.655Z,-2.71
2023-02-27T02:01:53.619Z,-2.73
2023-02-27T02:02:53.260Z,-2.70
2023-02-27T02:03:53.240Z,-2.71
2023-02-27T02:04:55.968Z,-2.70
2023-02-27T02:05:53.506Z,-2.73
2023-02-27T02:06:53.189Z,-2.71
2023-02-27T02:07:53.208Z,-2.77
2023-02-27T02:08:53.497Z,-2.81
2023-02-27T02:10:02.977Z,-2.81
2023-02-27T02:11:00.495Z,-2.84
2023-02-27T02:12:00.178Z,-2.88
2023-02-27T02:12:53.485Z,-2.85
2023-02-27T02:14:00.526Z,-2.85
2023-02-27T02:14:55.901Z,-2.81
2023-02-27T02:15:53.453Z,-2.79
2023-02-27T02:16:53.456Z,-2.82
2023-02-27T02:17:53.415Z,-2.84
2023-02-27T02:18:53.385Z,-2.88
2023-02-27T02:19:53.073Z,-2.89
2023-02-27T02:20:53.362Z,-2.84
2023-02-27T02:21:53.382Z,-2.81
2023-02-27T02:22:53.307Z,-2.82
2023-02-27T02:23:53.795Z,-2.78
2023-02-27T02:24:53.322Z,-2.71
2023-02-27T02:25:53.333Z,-2.73
2023-02-27T02:26:53.300Z,-2.77
2023-02-27T02:27:53.237Z,-2.74
2023-02-27T02:28:53.286Z,-2.78
2023-02-27T02:29:54.903Z,-2.81
2023-02-27T02:30:53.389Z,-2.82
2023-02-27T02:31:53.394Z,-2.81
2023-02-27T02:32:53.737Z,-2.84
2023-02-27T02:33:53.225Z,-2.82
2023-02-27T02:34:53.246Z,-2.77
2023-02-27T02:35:53.193Z,-2.73
2023-02-27T02:36:53.266Z,-2.70
2023-02-27T02:37:53.177Z,-2.68
2023-02-27T02:38:53.129Z,-2.73
2023-02-27T02:39:53.142Z,-2.74
2023-02-27T02:40:53.120Z,-2.78
2023-02-27T02:41:53.085Z,-2.77
2023-02-27T02:42:53.391Z,-2.78
2023-02-27T02:43:53.114Z,-2.81
2023-02-27T02:44:53.121Z,-2.82
2023-02-27T02:45:53.155Z,-2.82
2023-02-27T02:46:53.096Z,-2.81
2023-02-27T02:47:53.134Z,-2.78
2023-02-27T02:48:55.503Z,-2.79
2023-02-27T02:49:52.762Z,-2.74
2023-02-27T02:50:53.037Z,-2.81
2023-02-27T02:51:53.032Z,-2.84
2023-02-27T02:52:53.032Z,-2.85
2023-02-27T02:53:52.682Z,-2.89
2023-02-27T02:54:53.013Z,-2.88
2023-02-27T02:55:53.045Z,-2.86
2023-02-27T02:56:52.984Z,-2.92
2023-02-27T02:57:52.983Z,-2.88
2023-02-27T02:58:52.935Z,-2.85
2023-02-27T02:59:52.937Z,-2.85
2023-02-27T03:00:52.964Z,-2.88
2023-02-27T03:01:52.923Z,-2.85
2023-02-27T03:02:54.486Z,-2.82
2023-02-27T03:03:52.643Z,-2.88
2023-02-27T03:04:52.895Z,-2.91
2023-02-27T03:05:52.882Z,-2.86
2023-02-27T03:06:52.878Z,-2.94
2023-02-27T03:07:52.882Z,-2.94
2023-02-27T03:08:52.814Z,-2.88
2023-02-27T03:09:52.533Z,-2.91
2023-02-27T03:10:52.522Z,-2.88
2023-02-27T03:11:52.812Z,-2.85
2023-02-27T03:12:52.804Z,-2.85
2023-02-27T03:13:52.772Z,-2.85
2023-02-27T03:14:52.793Z,-2.88
2023-02-27T03:15:52.558Z,-2.84
2023-02-27T03:16:52.442Z,-2.79
2023-02-27T03:17:52.758Z,-2.74
2023-02-27T03:18:52.442Z,-2.73
2023-02-27T03:19:52.762Z,-2.73
2023-02-27T03:20:52.750Z,-2.82
2023-02-27T03:21:52.740Z,-2.84
2023-02-27T03:22:52.369Z,-2.82
2023-02-27T03:23:52.711Z,-2.81
2023-02-27T03:24:52.703Z,-2.79
2023-02-27T03:25:52.684Z,-2.82
2023-02-27T03:26:52.698Z,-2.85
2023-02-27T03:27:52.612Z,-2.92
2023-02-27T03:28:52.667Z,-2.97
2023-02-27T03:29:52.607Z,-2.97
2023-02-27T03:30:52.735Z,-2.99
2023-02-27T03:31:55.150Z,-2.97
2023-02-27T03:32:52.631Z,-2.97
2023-02-27T03:33:53.086Z,-2.99
2023-02-27T03:34:52.552Z,-3.03
2023-02-27T03:35:52.588Z,-2.99
2023-02-27T03:36:52.517Z,-2.89
2023-02-27T03:37:52.582Z,-2.89
2023-02-27T03:38:53.207Z,-2.94
2023-02-27T03:39:52.526Z,-2.94
2023-02-27T03:40:52.579Z,-2.94
2023-02-27T03:41:52.483Z,-2.96
2023-02-27T03:43:00.498Z,-2.96
2023-02-27T03:44:00.055Z,-2.94
2023-02-27T03:45:00.613Z,-2.89
2023-02-27T03:45:59.498Z,-2.91
2023-02-27T03:46:59.522Z,-2.92
2023-02-27T03:47:59.473Z,-2.94
2023-02-27T03:48:52.498Z,-2.96
2023-02-27T03:49:52.434Z,-2.99
2023-02-27T03:50:52.429Z,-2.99
2023-02-27T03:51:52.361Z,-3.03
2023-02-27T03:52:52.483Z,-3.05
2023-02-27T03:53:52.385Z,-3.03
2023-02-27T03:54:52.371Z,-3.07
2023-02-27T03:55:52.357Z,-3.09
2023-02-27T03:56:52.351Z,-3.05
2023-02-27T03:57:54.771Z,-3.00
2023-02-27T03:58:52.350Z,-3.00
2023-02-27T03:59:52.318Z,-2.99
2023-02-27T04:00:51.970Z,-2.97
2023-02-27T04:01:52.333Z,-2.99
2023-02-27T04:02:54.826Z,-3.02
2023-02-27T04:03:51.942Z,-3.02
2023-02-27T04:04:52.201Z,-3.03
2023-02-27T04:05:51.901Z,-3.06
2023-02-27T04:06:54.670Z,-3.05
2023-02-27T04:07:52.178Z,-3.06
2023-02-27T04:08:52.250Z,-3.09
2023-02-27T04:09:52.173Z,-3.07
2023-02-27T04:10:52.241Z,-3.07
2023-02-27T04:11:52.182Z,-3.14
2023-02-27T04:12:52.207Z,-3.10
2023-02-27T04:13:51.873Z,-3.07
2023-02-27T04:14:52.142Z,-3.03
2023-02-27T04:15:52.162Z,-3.03
2023-02-27T04:16:51.795Z,-3.05
2023-02-27T04:17:51.826Z,-3.10
2023-02-27T04:18:56.754Z,-3.09
2023-02-27T04:19:51.747Z,-3.14
2023-02-27T04:20:52.083Z,-3.15
2023-02-27T04:21:52.103Z,-3.21
2023-02-27T04:22:51.730Z,-3.24
2023-02-27T04:23:52.053Z,-3.21
2023-02-27T04:24:52.085Z,-3.18
2023-02-27T04:25:51.981Z,-3.18
2023-02-27T04:26:52.064Z,-3.15
2023-02-27T04:27:52.033Z,-3.09
2023-02-27T04:28:51.652Z,-3.09
2023-02-27T04:29:51.984Z,-3.06
2023-02-27T04:30:52.038Z,-3.09
2023-02-27T04:31:54.594Z,-3.12
2023-02-27T04:32:51.718Z,-3.15
2023-02-27T04:33:51.954Z,-3.18
2023-02-27T04:34:54.408Z,-3.20
2023-02-27T04:35:51.845Z,-3.23
2023-02-27T04:36:51.913Z,-3.21
2023-02-27T04:37:51.965Z,-3.20
2023-02-27T04:38:51.914Z,-3.18
2023-02-27T04:39:51.936Z,-3.18
2023-02-27T04:40:51.547Z,-3.15
2023-02-27T04:41:51.849Z,-3.20
2023-02-27T04:42:53.388Z,-3.23
2023-02-27T04:43:51.910Z,-3.28
2023-02-27T04:44:51.820Z,-3.25
2023-02-27T04:45:51.835Z,-3.27
2023-02-27T04:46:54.288Z,-3.27
2023-02-27T04:47:53.311Z,-3.28
2023-02-27T04:48:51.753Z,-3.28
2023-02-27T04:49:51.816Z,-3.27
2023-02-27T04:50:51.756Z,-3.31
2023-02-27T04:51:51.760Z,-3.33
2023-02-27T04:52:51.418Z,-3.38
2023-02-27T04:53:51.428Z,-3.38
2023-02-27T04:54:51.724Z,-3.35
2023-02-27T04:55:51.373Z,-3.35
2023-02-27T04:56:51.742Z,-3.36
2023-02-27T04:57:54.121Z,-3.35
2023-02-27T04:58:51.709Z,-3.35
2023-02-27T04:59:51.612Z,-3.31
2023-02-27T05:00:51.606Z,-3.33
2023-02-27T05:01:51.659Z,-3.36
2023-02-27T05:02:51.619Z,-3.36
2023-02-27T05:03:51.641Z,-3.36
2023-02-27T05:04:51.597Z,-3.36
2023-02-27T05:05:54.088Z,-3.36
2023-02-27T05:06:51.553Z,-3.31
2023-02-27T05:07:51.568Z,-3.31
2023-02-27T05:08:51.586Z,-3.31
2023-02-27T05:09:54.034Z,-3.30
2023-02-27T05:10:51.234Z,-3.36
2023-02-27T05:11:51.219Z,-3.36
2023-02-27T05:12:51.537Z,-3.38
2023-02-27T05:13:54.013Z,-3.39
2023-02-27T05:14:51.527Z,-3.31
2023-02-27T05:15:51.546Z,-3.25
2023-02-27T05:16:51.485Z,-3.25
2023-02-27T05:17:53.905Z,-3.25
2023-02-27T05:18:59.515Z,-3.27
2023-02-27T05:19:59.222Z,-3.27
2023-02-27T05:20:58.976Z,-3.23
2023-02-27T05:21:58.473Z,-3.27
2023-02-27T05:22:51.410Z,-3.28
2023-02-27T05:23:53.831Z,-3.31
2023-02-27T05:24:51.380Z,-3.38
2023-02-27T05:25:51.345Z,-3.33
2023-02-27T05:26:51.349Z,-3.28
2023-02-27T05:27:53.761Z,-3.28
2023-02-27T05:28:52.884Z,-3.31
2023-02-27T05:29:51.345Z,-3.31
2023-02-27T05:30:51.383Z,-3.27
2023-02-27T05:31:51.414Z,-3.25
2023-02-27T05:32:51.330Z,-3.23
2023-02-27T05:33:51.324Z,-3.23
2023-02-27T05:34:51.299Z,-3.21
2023-02-27T05:35:51.355Z,-3.23
2023-02-27T05:36:50.955Z,-3.21
2023-02-27T05:37:53.775Z,-3.20
2023-02-27T05:38:51.226Z,-3.21
2023-02-27T05:39:53.687Z,-3.21
2023-02-27T05:40:51.187Z,-3.23
2023-02-27T05:41:51.167Z,-3.21
2023-02-27T05:42:51.235Z,-3.24
2023-02-27T05:43:51.227Z,-3.25
2023-02-27T05:44:53.624Z,-3.25
2023-02-27T05:45:52.773Z,-3.24
2023-02-27T05:46:50.814Z,-3.23
2023-02-27T05:47:51.156Z,-3.24
2023-02-27T05:48:50.844Z,-3.30
2023-02-27T05:49:51.135Z,-3.27
2023-02-27T05:50:53.623Z,-3.35
2023-02-27T05:51:53.199Z,-3.30
2023-02-27T05:52:50.759Z,-3.27
2023-02-27T05:53:51.133Z,-3.20
2023-02-27T05:54:51.024Z,-3.21
2023-02-27T05:55:51.077Z,-3.21
2023-02-27T05:56:50.700Z,-3.21
2023-02-27T05:57:51.029Z,-3.21
2023-02-27T05:58:50.711Z,-3.21
2023-02-27T05:59:50.711Z,-3.18
2023-02-27T06:00:51.068Z,-3.15
2023-02-27T06:01:51.024Z,-3.17
2023-02-27T06:02:51.035Z,-3.15
2023-02-27T06:03:50.990Z,-3.15
2023-02-27T06:04:52.490Z,-3.18
2023-02-27T06:05:50.988Z,-3.21
2023-02-27T06:06:50.938Z,-3.21
2023-02-27T06:07:50.958Z,-3.21
2023-02-27T06:08:53.443Z,-3.21
2023-02-27T06:09:53.370Z,-3.21
2023-02-27T06:10:50.936Z,-3.25
2023-02-27T06:11:52.339Z,-3.30
2023-02-27T06:12:50.881Z,-3.36
2023-02-27T06:13:50.892Z,-3.39
2023-02-27T06:14:50.513Z,-3.31
2023-02-27T06:15:53.276Z,-3.31
2023-02-27T06:16:50.857Z,-3.38
2023-02-27T06:17:51.326Z,-3.38
2023-02-27T06:18:53.262Z,-3.36
2023-02-27T06:19:50.827Z,-3.36
2023-02-27T06:20:50.798Z,-3.36
2023-02-27T06:21:50.785Z,-3.33
2023-02-27T06:22:50.409Z,-3.31
2023-02-27T06:23:50.861Z,-3.39
2023-02-27T06:24:50.778Z,-3.39
2023-02-27T06:25:50.775Z,-3.41
2023-02-27T06:26:50.678Z,-3.39
2023-02-27T06:27:52.220Z,-3.38
2023-02-27T06:28:50.728Z,-3.41
2023-02-27T06:29:52.160Z,-3.36
2023-02-27T06:30:50.689Z,-3.30
2023-02-27T06:31:51.265Z,-3.30
2023-02-27T06:32:50.330Z,-3.33
2023-02-27T06:33:53.226Z,-3.35
2023-02-27T06:34:50.615Z,-3.35
2023-02-27T06:35:52.176Z,-3.30
2023-02-27T06:36:50.593Z,-3.27
2023-02-27T06:37:53.108Z,-3.23
2023-02-27T06:38:50.254Z,-3.21
2023-02-27T06:39:50.572Z,-3.20
2023-02-27T06:40:50.592Z,-3.20
2023-02-27T06:41:50.545Z,-3.18
2023-02-27T06:42:50.584Z,-3.14
2023-02-27T06:43:51.050Z,-3.05
2023-02-27T06:44:50.503Z,-2.99
2023-02-27T06:45:50.602Z,-2.91
2023-02-27T06:46:50.477Z,-2.86
2023-02-27T06:47:50.474Z,-2.82
2023-02-27T06:48:50.520Z,-2.74
2023-02-27T06:49:52.899Z,-2.73
2023-02-27T06:50:50.442Z,-2.68
2023-02-27T06:51:52.860Z,-2.67
2023-02-27T06:52:57.979Z,-2.70
2023-02-27T06:53:59.928Z,-2.71
2023-02-27T06:54:50.449Z,-2.71
2023-02-27T06:55:58.432Z,-2.71
2023-02-27T06:56:50.429Z,-2.71
2023-02-27T06:57:52.894Z,-2.77
2023-02-27T06:58:51.858Z,-2.74
2023-02-27T06:59:57.401Z,-2.70
2023-02-27T07:00:50.346Z,-2.70
2023-02-27T07:01:50.302Z,-2.73
2023-02-27T07:02:50.385Z,-2.74
2023-02-27T07:03:50.336Z,-2.74
2023-02-27T07:04:50.029Z,-2.71
2023-02-27T07:05:50.313Z,-2.67
2023-02-27T07:07:34.310Z,-2.60
2023-02-27T07:07:51.272Z,-2.58
2023-02-27T07:08:54.469Z,-2.52
2023-02-27T07:09:50.935Z,-2.50
2023-02-27T07:10:50.243Z,-2.49
2023-02-27T07:11:50.280Z,-2.48
2023-02-27T07:12:50.195Z,-2.45
2023-02-27T07:13:55.932Z,-2.45
2023-02-27T07:14:51.715Z,-2.43
2023-02-27T07:15:49.877Z,-2.43
2023-02-27T07:16:52.693Z,-2.40
2023-02-27T07:17:49.836Z,-2.32
2023-02-27T07:18:49.832Z,-2.27
2023-02-27T07:19:50.139Z,-2.24
2023-02-27T07:20:50.089Z,-2.23
2023-02-27T07:21:49.800Z,-2.23
2023-02-27T07:22:49.772Z,-2.16
2023-02-27T07:23:49.782Z,-2.13
2023-02-27T07:24:50.117Z,-2.12
2023-02-27T07:25:50.131Z,-2.03
2023-02-27T07:26:50.073Z,-2.00
2023-02-27T07:27:50.051Z,-1.91
2023-02-27T07:28:50.071Z,-1.94
2023-02-27T07:29:49.718Z,-1.88
2023-02-27T07:30:50.092Z,-1.88
2023-02-27T07:31:50.081Z,-1.87
2023-02-27T07:32:50.020Z,-1.85
2023-02-27T07:33:52.506Z,-1.82
2023-02-27T07:34:50.069Z,-1.76
2023-02-27T07:35:50.055Z,-1.70
2023-02-27T07:36:49.951Z,-1.62
2023-02-27T07:37:50.044Z,-1.56
2023-02-27T07:38:51.554Z,-1.52
2023-02-27T07:39:50.056Z,-1.49
2023-02-27T07:40:49.918Z,-1.45
2023-02-27T07:41:49.933Z,-1.43
2023-02-27T07:42:51.530Z,-1.40
2023-02-27T07:43:49.861Z,-1.37
2023-02-27T07:44:50.588Z,-1.33
2023-02-27T07:45:49.525Z,-1.30
2023-02-27T07:46:49.922Z,-1.23
2023-02-27T07:47:50.314Z,-1.19
2023-02-27T07:48:49.506Z,-1.15
2023-02-27T07:49:49.841Z,-1.12
2023-02-27T07:50:49.795Z,-1.09
2023-02-27T07:51:52.285Z,-1.05
2023-02-27T07:52:49.860Z,-1.01
2023-02-27T07:53:50.305Z,-0.98
2023-02-27T07:54:52.357Z,-0.95
2023-02-27T07:55:52.304Z,-0.94
2023-02-27T07:56:49.404Z,-0.91
2023-02-27T07:57:52.239Z,-0.86
2023-02-27T07:58:49.754Z,-0.83
2023-02-27T07:59:51.276Z,-0.83
2023-02-27T08:00:49.699Z,-0.83
2023-02-27T08:01:49.337Z,-0.83
2023-02-27T08:02:49.719Z,-0.79
2023-02-27T08:03:51.194Z,-0.76
2023-02-27T08:04:49.670Z,-0.75
2023-02-27T08:05:52.068Z,-0.73
2023-02-27T08:06:49.285Z,-0.70
2023-02-27T08:07:49.316Z,-0.65
2023-02-27T08:08:49.599Z,-0.67
2023-02-27T08:09:49.624Z,-0.65
2023-02-27T08:10:52.076Z,-0.64
2023-02-27T08:11:49.426Z,-0.62
2023-02-27T08:12:51.974Z,-0.61
2023-02-27T08:14:00.409Z,-0.60
2023-02-27T08:14:50.588Z,-0.58
2023-02-27T08:15:49.531Z,-0.55
2023-02-27T08:16:49.197Z,-0.54
2023-02-27T08:17:49.464Z,-0.51
2023-02-27T08:18:49.194Z,-0.47
2023-02-27T08:19:51.845Z,-0.44
2023-02-27T08:20:50.968Z,-0.42
2023-02-27T08:21:51.027Z,-0.37
2023-02-27T08:22:51.082Z,-0.33
2023-02-27T08:23:49.420Z,-0.31
2023-02-27T08:24:49.113Z,-0.26
2023-02-27T08:25:50.948Z,-0.23
2023-02-27T08:26:50.137Z,-0.23
2023-02-27T08:27:56.424Z,-0.22
2023-02-27T08:28:56.354Z,-0.21
2023-02-27T08:29:56.907Z,-0.18
2023-02-27T08:30:57.911Z,-0.15
2023-02-27T08:31:49.139Z,-0.14
2023-02-27T08:32:49.809Z,-0.08
2023-02-27T08:33:55.313Z,-0.08
2023-02-27T08:34:50.338Z,-0.07
2023-02-27T08:35:49.335Z,-0.04
2023-02-27T08:36:49.261Z,-0.03
2023-02-27T08:37:49.284Z,0.00
2023-02-27T08:38:50.807Z,0.00
2023-02-27T08:39:49.263Z,-0.01
2023-02-27T08:40:49.284Z,0.02
2023-02-27T08:41:49.283Z,0.02
2023-02-27T08:42:49.241Z,0.02
2023-02-27T08:43:48.932Z,0.04
2023-02-27T08:44:49.202Z,0.08
2023-02-27T08:45:49.279Z,0.10
2023-02-27T08:46:48.861Z,0.14
2023-02-27T08:47:51.692Z,0.14
2023-02-27T08:48:50.611Z,0.18
2023-02-27T08:49:49.147Z,0.17
2023-02-27T08:50:48.839Z,0.15
2023-02-27T08:51:51.570Z,0.18
2023-02-27T08:52:49.111Z,0.24
2023-02-27T08:53:49.106Z,0.28
2023-02-27T08:54:48.762Z,0.28
2023-02-27T08:55:49.111Z,0.24
2023-02-27T08:56:49.129Z,0.24
2023-02-27T08:57:49.097Z,0.28
2023-02-27T08:58:49.104Z,0.28
2023-02-27T08:59:49.117Z,0.29
2023-02-27T09:00:49.100Z,0.29
2023-02-27T09:01:48.680Z,0.29
2023-02-27T09:02:49.013Z,0.26
2023-02-27T09:03:49.082Z,0.24
2023-02-27T09:04:48.971Z,0.28
2023-02-27T09:05:49.090Z,0.32
2023-02-27T09:06:48.949Z,0.35
2023-02-27T09:07:49.018Z,0.41
2023-02-27T09:08:48.652Z,0.44
2023-02-27T09:09:50.065Z,0.46
2023-02-27T09:10:48.973Z,0.47
2023-02-27T09:11:48.653Z,0.50
2023-02-27T09:12:48.891Z,0.53
2023-02-27T09:13:48.904Z,0.60
2023-02-27T09:14:50.343Z,0.68
2023-02-27T09:15:48.893Z,0.72
2023-02-27T09:16:48.942Z,0.78
2023-02-27T09:17:51.339Z,0.83
2023-02-27T09:18:48.846Z,0.86
2023-02-27T09:19:48.896Z,0.90
2023-02-27T09:20:48.504Z,0.91
2023-02-27T09:21:48.834Z,0.94
2023-02-27T09:22:48.474Z,0.94
2023-02-27T09:23:48.801Z,0.96
2023-02-27T09:24:48.775Z,1.00
2023-02-27T09:25:48.956Z,1.05
2023-02-27T09:26:49.761Z,1.05
2023-02-27T09:27:48.701Z,1.05
2023-02-27T09:28:48.751Z,1.05
2023-02-27T09:29:48.724Z,1.05
2023-02-27T09:30:48.688Z,1.06
2023-02-27T09:31:48.560Z,1.09
2023-02-27T09:32:51.217Z,1.06
2023-02-27T09:33:48.722Z,1.06
2023-02-27T09:34:48.614Z,1.11
2023-02-27T09:35:48.649Z,1.14
2023-02-27T09:36:48.607Z,1.12
2023-02-27T09:37:48.284Z,1.15
2023-02-27T09:38:48.289Z,1.18
2023-02-27T09:39:48.274Z,1.20
2023-02-27T09:40:48.263Z,1.22
2023-02-27T09:41:48.520Z,1.24
2023-02-27T09:42:48.617Z,1.29
2023-02-27T09:43:48.587Z,1.34
2023-02-27T09:44:48.213Z,1.37
2023-02-27T09:45:48.223Z,1.42
2023-02-27T09:46:48.503Z,1.45
2023-02-27T09:47:48.172Z,1.52
2023-02-27T09:48:48.186Z,1.60
2023-02-27T09:49:48.186Z,1.66
2023-02-27T09:50:48.136Z,1.72
2023-02-27T09:51:48.415Z,1.79
2023-02-27T09:52:48.502Z,1.86
2023-02-27T09:53:48.380Z,1.91
2023-02-27T09:54:48.103Z,1.98
2023-02-27T09:55:48.074Z,1.99
2023-02-27T09:56:48.084Z,1.99
2023-02-27T09:57:48.382Z,2.00
2023-02-27T09:58:48.094Z,2.03
2023-02-27T09:59:55.379Z,2.05
2023-02-27T10:00:56.572Z,2.02
2023-02-27T10:01:56.984Z,2.00
2023-02-27T10:02:56.240Z,2.03
2023-02-27T10:03:55.024Z,2.07
2023-02-27T10:04:55.364Z,2.12
2023-02-27T10:05:47.974Z,2.17
2023-02-27T10:06:48.258Z,2.24
2023-02-27T10:07:48.288Z,2.30
2023-02-27T10:08:47.954Z,2.38
2023-02-27T10:09:47.933Z,2.41
2023-02-27T10:10:48.273Z,2.38
2023-02-27T10:11:48.241Z,2.38
2023-02-27T10:12:48.174Z,2.39
2023-02-27T10:13:47.897Z,2.43
2023-02-27T10:14:47.876Z,2.41
2023-02-27T10:15:48.317Z,2.42
2023-02-27T10:16:47.894Z,2.46
2023-02-27T10:17:48.167Z,2.54
2023-02-27T10:18:48.135Z,2.49
2023-02-27T10:19:47.829Z,2.49
2023-02-27T10:20:48.053Z,2.52
2023-02-27T10:21:47.802Z,2.53
2023-02-27T10:22:48.117Z,2.57
2023-02-27T10:23:47.791Z,2.61
2023-02-27T10:24:48.079Z,2.63
2023-02-27T10:25:48.070Z,2.64
2023-02-27T10:26:47.746Z,2.67
2023-02-27T10:27:52.421Z,2.63
2023-02-27T10:28:48.056Z,2.64
2023-02-27T10:29:47.741Z,2.63
2023-02-27T10:30:47.720Z,2.60
2023-02-27T10:31:47.791Z,2.63
2023-02-27T10:32:47.681Z,2.67
2023-02-27T10:33:47.968Z,2.71
2023-02-27T10:34:49.348Z,2.75
2023-02-27T10:35:47.723Z,2.77
2023-02-27T10:36:47.639Z,2.82
2023-02-27T10:37:47.633Z,2.78
2023-02-27T10:38:47.922Z,2.79
2023-02-27T10:39:50.560Z,2.84
2023-02-27T10:40:47.610Z,2.82
2023-02-27T10:41:47.876Z,2.82
2023-02-27T10:42:47.962Z,2.84
2023-02-27T10:43:47.579Z,2.87
2023-02-27T10:44:47.568Z,2.84
2023-02-27T10:45:47.834Z,2.85
2023-02-27T10:46:48.592Z,2.85
2023-02-27T10:47:47.813Z,2.89
2023-02-27T10:48:47.498Z,2.93
2023-02-27T10:49:47.562Z,2.96
2023-02-27T10:50:47.786Z,3.00
2023-02-27T10:51:49.296Z,2.97
2023-02-27T10:52:47.485Z,3.00
2023-02-27T10:53:47.731Z,3.03
2023-02-27T10:54:47.763Z,3.06
2023-02-27T10:55:47.423Z,3.10
2023-02-27T10:56:47.451Z,3.10
2023-02-27T10:57:47.405Z,3.06
2023-02-27T10:58:47.396Z,3.03
2023-02-27T10:59:47.395Z,3.06
2023-02-27T11:00:47.667Z,3.10
2023-02-27T11:01:47.429Z,3.13
2023-02-27T11:02:47.712Z,3.17
2023-02-27T11:03:47.662Z,3.21
2023-02-27T11:04:47.377Z,3.23
2023-02-27T11:05:47.563Z,3.24
2023-02-27T11:06:47.292Z,3.28
2023-02-27T11:07:47.292Z,3.35
2023-02-27T11:08:50.075Z,3.45
2023-02-27T11:09:47.561Z,3.51
2023-02-27T11:10:47.576Z,3.51
2023-02-27T11:11:47.575Z,3.50
2023-02-27T11:12:47.233Z,3.52
2023-02-27T11:13:47.238Z,3.55
2023-02-27T11:14:47.221Z,3.57
2023-02-27T11:15:47.208Z,3.57
2023-02-27T11:16:48.943Z,3.61
2023-02-27T11:17:47.173Z,3.60
2023-02-27T11:18:47.491Z,3.52
2023-02-27T11:19:47.187Z,3.57
2023-02-27T11:20:47.144Z,3.57
2023-02-27T11:21:47.124Z,3.60
2023-02-27T11:22:47.115Z,3.61
2023-02-27T11:23:47.126Z,3.62
2023-02-27T11:24:47.146Z,3.68
2023-02-27T11:25:47.086Z,3.72
2023-02-27T11:26:47.398Z,3.78
2023-02-27T11:27:47.056Z,3.86
2023-02-27T11:28:47.348Z,3.90
2023-02-27T11:29:47.363Z,3.90
2023-02-27T11:30:47.353Z,3.90
2023-02-27T11:31:47.081Z,3.96
2023-02-27T11:32:47.330Z,4.00
2023-02-27T11:33:47.321Z,4.04
2023-02-27T11:34:47.034Z,4.04
2023-02-27T11:35:57.445Z,4.04
2023-02-27T11:36:54.261Z,4.08
2023-02-27T11:37:53.967Z,4.11
2023-02-27T11:38:54.308Z,4.18
2023-02-27T11:39:55.028Z,4.15
2023-02-27T11:40:53.951Z,4.09
2023-02-27T11:41:54.231Z,4.05
2023-02-27T11:42:54.304Z,4.00
2023-02-27T11:43:46.905Z,4.00
2023-02-27T11:44:50.294Z,4.05
2023-02-27T11:46:10.199Z,4.09
2023-02-27T11:46:48.881Z,4.14
2023-02-27T11:47:47.204Z,4.18
2023-02-27T11:48:46.884Z,4.27
2023-02-27T11:49:46.850Z,4.32
2023-02-27T11:50:47.195Z,4.36
2023-02-27T11:51:46.818Z,4.40
2023-02-27T11:52:46.816Z,4.48
2023-02-27T11:53:46.799Z,4.50
2023-02-27T11:54:46.825Z,4.58
2023-02-27T11:55:46.770Z,4.54
2023-02-27T11:56:46.770Z,4.52
2023-02-27T11:57:46.753Z,4.54
2023-02-27T11:58:46.736Z,4.54
2023-02-27T11:59:46.746Z,4.55
2023-02-27T12:00:47.056Z,4.54
2023-02-27T12:01:47.009Z,4.55
2023-02-27T12:02:46.760Z,4.54
2023-02-27T12:03:46.746Z,4.54
2023-02-27T12:04:46.749Z,4.66
2023-02-27T12:05:46.673Z,4.75
2023-02-27T12:06:46.685Z,4.82
2023-02-27T12:07:46.670Z,4.86
2023-02-27T12:08:46.662Z,4.86
2023-02-27T12:09:46.979Z,4.86
2023-02-27T12:10:46.623Z,4.91
2023-02-27T12:11:46.592Z,4.91
2023-02-27T12:12:46.592Z,4.96
2023-02-27T12:13:46.632Z,5.02
2023-02-27T12:14:46.680Z,5.07
2023-02-27T12:15:46.562Z,5.04
2023-02-27T12:16:46.631Z,5.04
2023-02-27T12:17:46.511Z,5.07
2023-02-27T12:18:46.903Z,5.06
2023-02-27T12:19:46.789Z,5.02
2023-02-27T12:20:46.509Z,5.02
2023-02-27T12:21:48.439Z,5.07
2023-02-27T12:22:46.766Z,5.21
2023-02-27T12:23:46.456Z,5.24
2023-02-27T12:24:46.470Z,5.24
2023-02-27T12:25:46.441Z,5.25
2023-02-27T12:26:46.494Z,5.31
2023-02-27T12:27:46.401Z,5.36
2023-02-27T12:28:46.411Z,5.30
2023-02-27T12:29:46.388Z,5.27
2023-02-27T12:30:46.420Z,5.39
2023-02-27T12:31:46.829Z,5.45
2023-02-27T12:32:47.787Z,5.43
2023-02-27T12:33:46.341Z,5.40
2023-02-27T12:34:46.402Z,5.40
2023-02-27T12:35:46.375Z,5.42
2023-02-27T12:36:46.618Z,5.45
2023-02-27T12:37:46.629Z,5.53
2023-02-27T12:38:46.319Z,5.57
2023-02-27T12:39:46.669Z,5.65
2023-02-27T12:40:46.579Z,5.74
2023-02-27T12:41:46.308Z,5.67
2023-02-27T12:42:46.586Z,5.67
2023-02-27T12:43:46.233Z,5.75
2023-02-27T12:44:46.309Z,5.83
2023-02-27T12:45:46.242Z,5.91
2023-02-27T12:46:46.213Z,6.04
2023-02-27T12:47:46.549Z,6.06
2023-02-27T12:48:46.158Z,6.04
2023-02-27T12:49:46.170Z,6.01
2023-02-27T12:50:46.141Z,6.03
2023-02-27T12:51:46.492Z,6.01
2023-02-27T12:52:46.109Z,6.03
2023-02-27T12:53:46.112Z,6.03
2023-02-27T12:54:46.701Z,5.91
2023-02-27T12:55:46.091Z,5.89
2023-02-27T12:56:46.435Z,5.89
2023-02-27T12:57:46.072Z,5.99
2023-02-27T12:58:46.394Z,6.08
2023-02-27T12:59:46.099Z,6.11
2023-02-27T13:00:46.381Z,6.14
2023-02-27T13:01:46.014Z,6.19